sensor_id;sensor_type;location;lat;lon;timestamp;temperature;humidity
24836;DHT22;12915;57.650;12.044;2024-01-15T04:05:53;-1.80;99.90
24836;DHT22;12915;57.650;12.044;2024-01-15T04:08:19;-2.20;99.90
24836;DHT22;12915;57.650;12.044;2024-01-15T04:10:44;-2.30;99.90
24836;DHT22;12915;57.650;12.044;2024-01-15T04:13:12;-2.50;99.90
24836;DHT22;12915;57.650;12.044;2024-01-15T04:15:37;-2.50;99.90
24836;DHT22;12915;57.650;12.044;2024-01-15T04:18:03;-2.40;99.90
24836;DHT22;12915;57.650;12.044;2024-01-15T04:20:29;-2.50;99.90
24836;DHT22;12915;57.650;12.044;2024-01-15T04:22:54;-2.60;99.90
24836;DHT22;12915;57.650;12.044;2024-01-15T04:25:20;-2.50;99.90
24836;DHT22;12915;57.650;12.044;2024-01-15T04:27:49;-2.50;99.90
24836;DHT22;12915;57.650;12.044;2024-01-15T04:30:14;-2.60;99.90
24836;DHT22;12915;57.650;12.044;2024-01-15T04:32:40;-2.60;99.90
24836;DHT22;12915;57.650;12.044;2024-01-15T04:35:08;-2.60;99.90
24836;DHT22;12915;57.650;12.044;2024-01-15T04:37:34;-2.40;99.90
24836;DHT22;12915;57.650;12.044;2024-01-15T06:19:59;-2.70;99.90
24836;DHT22;12915;57.650;12.044;2024-01-15T06:22:29;-2.70;99.90
24836;DHT22;12915;57.650;12.044;2024-01-15T06:24:57;-2.80;99.90
24836;DHT22;12915;57.650;12.044;2024-01-15T06:27:27;-2.90;99.90
24836;DHT22;12915;57.650;12.044;2024-01-15T06:30:00;-2.90;99.90
24836;DHT22;12915;57.650;12.044;2024-01-15T06:32:30;-3.00;99.90
24836;DHT22;12915;57.650;12.044;2024-01-15T06:37:31;-3.10;99.90
24836;DHT22;12915;57.650;12.044;2024-01-15T06:40:03;-3.20;99.90
24836;DHT22;12915;57.650;12.044;2024-01-15T06:42:28;-3.30;99.90
24836;DHT22;12915;57.650;12.044;2024-01-15T07:52:47;-3.20;99.90
24836;DHT22;12915;57.650;12.044;2024-01-15T07:55:15;-3.30;99.90
24836;DHT22;12915;57.650;12.044;2024-01-15T07:57:46;-3.30;99.90
24836;DHT22;12915;57.650;12.044;2024-01-15T08:00:25;-3.20;99.90
24836;DHT22;12915;57.650;12.044;2024-01-15T09:30:02;-2.30;99.90
24836;DHT22;12915;57.650;12.044;2024-01-15T09:41:49;-2.50;99.90
24836;DHT22;12915;57.650;12.044;2024-01-15T10:33:59;-2.40;99.90
24836;DHT22;12915;57.650;12.044;2024-01-15T12:31:21;-2.10;99.90
24836;DHT22;12915;57.650;12.044;2024-01-15T13:40:44;-2.80;99.90
24836;DHT22;12915;57.650;12.044;2024-01-15T13:46:34;-2.50;99.90
24836;DHT22;12915;57.650;12.044;2024-01-15T13:48:59;-2.50;99.90
24836;DHT22;12915;57.650;12.044;2024-01-15T13:51:30;-2.90;99.90
24836;DHT22;12915;57.650;12.044;2024-01-15T13:54:02;-3.30;99.90
24836;DHT22;12915;57.650;12.044;2024-01-15T14:57:16;-4.50;99.90
24836;DHT22;12915;57.650;12.044;2024-01-15T15:03:10;-4.00;99.90
24836;DHT22;12915;57.650;12.044;2024-01-15T15:05:43;-4.10;99.90
24836;DHT22;12915;57.650;12.044;2024-01-15T15:08:13;-4.50;99.90
24836;DHT22;12915;57.650;12.044;2024-01-15T16:49:53;-4.10;99.90
24836;DHT22;12915;57.650;12.044;2024-01-15T16:52:19;-4.10;99.90
24836;DHT22;12915;57.650;12.044;2024-01-15T16:54:45;-4.00;99.90
24836;DHT22;12915;57.650;12.044;2024-01-15T16:57:11;-3.90;99.90
24836;DHT22;12915;57.650;12.044;2024-01-15T17:06:26;-3.80;99.90
24836;DHT22;12915;57.650;12.044;2024-01-15T17:08:56;-3.90;99.90
24836;DHT22;12915;57.650;12.044;2024-01-15T17:11:22;-3.90;99.90
24836;DHT22;12915;57.650;12.044;2024-01-15T17:13:49;-3.90;99.90
24836;DHT22;12915;57.650;12.044;2024-01-15T17:16:16;-4.00;99.90
24836;DHT22;12915;57.650;12.044;2024-01-15T17:18:43;-4.00;99.90
24836;DHT22;12915;57.650;12.044;2024-01-15T17:21:14;-4.10;99.90
24836;DHT22;12915;57.650;12.044;2024-01-15T17:24:16;-4.10;99.90
24836;DHT22;12915;57.650;12.044;2024-01-15T17:26:52;-4.20;99.90
24836;DHT22;12915;57.650;12.044;2024-01-15T17:29:40;-4.20;99.90
24836;DHT22;12915;57.650;12.044;2024-01-15T17:32:06;-4.20;99.90
24836;DHT22;12915;57.650;12.044;2024-01-15T17:34:39;-4.30;99.90
24836;DHT22;12915;57.650;12.044;2024-01-15T17:37:06;-4.30;99.90
24836;DHT22;12915;57.650;12.044;2024-01-15T17:39:43;-4.30;99.90
24836;DHT22;12915;57.650;12.044;2024-01-15T17:42:16;-4.30;99.90
24836;DHT22;12915;57.650;12.044;2024-01-15T17:44:44;-4.30;99.90
24836;DHT22;12915;57.650;12.044;2024-01-15T17:47:10;-4.40;99.90
24836;DHT22;12915;57.650;12.044;2024-01-15T17:49:36;-4.40;99.90
24836;DHT22;12915;57.650;12.044;2024-01-15T17:52:03;-4.50;99.90
24836;DHT22;12915;57.650;12.044;2024-01-15T17:57:38;-4.50;99.90
24836;DHT22;12915;57.650;12.044;2024-01-15T18:00:05;-4.60;99.90
24836;DHT22;12915;57.650;12.044;2024-01-15T18:02:32;-4.70;99.90
24836;DHT22;12915;57.650;12.044;2024-01-15T18:04:58;-4.70;99.90
24836;DHT22;12915;57.650;12.044;2024-01-15T18:07:24;-4.80;99.90
24836;DHT22;12915;57.650;12.044;2024-01-15T18:09:52;-4.90;99.90
24836;DHT22;12915;57.650;12.044;2024-01-15T18:12:27;-4.90;99.90
24836;DHT22;12915;57.650;12.044;2024-01-15T18:17:31;-4.80;99.90
24836;DHT22;12915;57.650;12.044;2024-01-15T18:20:02;-4.80;99.90
24836;DHT22;12915;57.650;12.044;2024-01-15T18:22:30;-4.80;99.90
24836;DHT22;12915;57.650;12.044;2024-01-15T18:24:56;-4.80;99.90
24836;DHT22;12915;57.650;12.044;2024-01-15T18:27:24;-4.90;99.90
24836;DHT22;12915;57.650;12.044;2024-01-15T18:29:54;-5.00;99.90
24836;DHT22;12915;57.650;12.044;2024-01-15T18:32:23;-5.10;99.90
24836;DHT22;12915;57.650;12.044;2024-01-15T18:34:52;-5.00;99.90
24836;DHT22;12915;57.650;12.044;2024-01-15T18:37:20;-5.00;99.90
24836;DHT22;12915;57.650;12.044;2024-01-15T18:39:46;-4.90;99.90
24836;DHT22;12915;57.650;12.044;2024-01-15T18:42:19;-4.90;99.90
24836;DHT22;12915;57.650;12.044;2024-01-15T18:44:46;-4.90;99.90
24836;DHT22;12915;57.650;12.044;2024-01-15T18:47:15;-5.00;99.90
24836;DHT22;12915;57.650;12.044;2024-01-15T18:49:44;-5.10;99.90
24836;DHT22;12915;57.650;12.044;2024-01-15T18:52:13;-5.10;99.90
24836;DHT22;12915;57.650;12.044;2024-01-15T18:54:40;-5.20;99.90
24836;DHT22;12915;57.650;12.044;2024-01-15T18:57:06;-5.20;99.90
24836;DHT22;12915;57.650;12.044;2024-01-15T18:59:32;-5.20;99.90
24836;DHT22;12915;57.650;12.044;2024-01-15T19:02:00;-5.30;99.90
24836;DHT22;12915;57.650;12.044;2024-01-15T19:04:25;-5.30;99.90
24836;DHT22;12915;57.650;12.044;2024-01-15T19:06:51;-5.30;99.90
24836;DHT22;12915;57.650;12.044;2024-01-15T19:09:18;-5.40;99.90
24836;DHT22;12915;57.650;12.044;2024-01-15T19:11:44;-5.50;99.90
24836;DHT22;12915;57.650;12.044;2024-01-15T19:14:10;-5.50;99.90
24836;DHT22;12915;57.650;12.044;2024-01-15T19:16:39;-5.70;99.90
24836;DHT22;12915;57.650;12.044;2024-01-15T19:19:04;-5.80;99.90
24836;DHT22;12915;57.650;12.044;2024-01-15T19:24:05;-5.80;99.90
24836;DHT22;12915;57.650;12.044;2024-01-15T19:26:32;-5.80;99.90
24836;DHT22;12915;57.650;12.044;2024-01-15T19:28:58;-5.80;99.90
24836;DHT22;12915;57.650;12.044;2024-01-15T19:31:26;-5.80;99.90
24836;DHT22;12915;57.650;12.044;2024-01-15T19:33:55;-5.90;99.90
24836;DHT22;12915;57.650;12.044;2024-01-15T19:36:22;-5.80;99.90
24836;DHT22;12915;57.650;12.044;2024-01-15T19:38:49;-5.80;99.90
24836;DHT22;12915;57.650;12.044;2024-01-15T19:41:15;-5.80;99.90
24836;DHT22;12915;57.650;12.044;2024-01-15T19:43:41;-5.70;99.90
24836;DHT22;12915;57.650;12.044;2024-01-15T19:46:07;-5.60;99.90
24836;DHT22;12915;57.650;12.044;2024-01-15T19:48:34;-5.60;99.90
24836;DHT22;12915;57.650;12.044;2024-01-15T19:51:02;-5.70;99.90
24836;DHT22;12915;57.650;12.044;2024-01-15T19:53:28;-5.80;99.90
24836;DHT22;12915;57.650;12.044;2024-01-15T19:55:55;-5.70;99.90
24836;DHT22;12915;57.650;12.044;2024-01-15T19:58:23;-5.70;99.90
24836;DHT22;12915;57.650;12.044;2024-01-15T20:00:49;-5.70;99.90
24836;DHT22;12915;57.650;12.044;2024-01-15T20:03:16;-5.70;99.90
24836;DHT22;12915;57.650;12.044;2024-01-15T20:08:17;-6.00;99.90
24836;DHT22;12915;57.650;12.044;2024-01-15T20:10:43;-6.10;99.90
24836;DHT22;12915;57.650;12.044;2024-01-15T20:13:09;-6.20;99.90
24836;DHT22;12915;57.650;12.044;2024-01-15T20:15:35;-6.20;99.90
24836;DHT22;12915;57.650;12.044;2024-01-15T20:18:03;-6.30;99.90
24836;DHT22;12915;57.650;12.044;2024-01-15T20:20:29;-6.40;99.90
24836;DHT22;12915;57.650;12.044;2024-01-15T20:22:55;-6.40;99.90
24836;DHT22;12915;57.650;12.044;2024-01-15T20:25:21;-6.50;99.90
24836;DHT22;12915;57.650;12.044;2024-01-15T20:27:50;-6.50;99.90
24836;DHT22;12915;57.650;12.044;2024-01-15T20:30:16;-6.50;99.90
24836;DHT22;12915;57.650;12.044;2024-01-15T20:32:42;-6.60;99.90
24836;DHT22;12915;57.650;12.044;2024-01-15T20:35:08;-6.50;99.90
24836;DHT22;12915;57.650;12.044;2024-01-15T20:37:55;-6.60;99.90
24836;DHT22;12915;57.650;12.044;2024-01-15T20:40:28;-6.50;99.90
24836;DHT22;12915;57.650;12.044;2024-01-15T20:42:54;-6.50;99.90
24836;DHT22;12915;57.650;12.044;2024-01-15T20:45:20;-6.50;99.90
24836;DHT22;12915;57.650;12.044;2024-01-15T20:47:46;-6.60;99.90
24836;DHT22;12915;57.650;12.044;2024-01-15T20:50:12;-6.60;99.90
24836;DHT22;12915;57.650;12.044;2024-01-15T20:52:38;-6.60;99.90
24836;DHT22;12915;57.650;12.044;2024-01-15T20:55:07;-6.60;99.90
24836;DHT22;12915;57.650;12.044;2024-01-15T20:57:34;-6.40;99.90
24836;DHT22;12915;57.650;12.044;2024-01-15T21:00:00;-6.40;99.90
24836;DHT22;12915;57.650;12.044;2024-01-15T21:02:26;-6.40;99.90
24836;DHT22;12915;57.650;12.044;2024-01-15T21:04:51;-6.60;99.90
24836;DHT22;12915;57.650;12.044;2024-01-15T21:07:17;-6.70;99.90
24836;DHT22;12915;57.650;12.044;2024-01-15T21:09:46;-6.80;99.90
24836;DHT22;12915;57.650;12.044;2024-01-15T21:12:12;-7.00;99.90
24836;DHT22;12915;57.650;12.044;2024-01-15T21:14:40;-6.80;99.90
24836;DHT22;12915;57.650;12.044;2024-01-15T21:17:06;-6.80;99.90
24836;DHT22;12915;57.650;12.044;2024-01-15T21:19:32;-6.70;99.90
24836;DHT22;12915;57.650;12.044;2024-01-15T21:21:58;-6.70;99.90
24836;DHT22;12915;57.650;12.044;2024-01-15T21:24:24;-6.70;99.90
24836;DHT22;12915;57.650;12.044;2024-01-15T21:26:53;-6.80;99.90
24836;DHT22;12915;57.650;12.044;2024-01-15T21:29:19;-6.90;99.90
24836;DHT22;12915;57.650;12.044;2024-01-15T21:31:45;-6.90;99.90
24836;DHT22;12915;57.650;12.044;2024-01-15T21:34:11;-7.00;99.90
24836;DHT22;12915;57.650;12.044;2024-01-15T21:36:38;-6.90;99.90
24836;DHT22;12915;57.650;12.044;2024-01-15T21:39:04;-6.90;99.90
24836;DHT22;12915;57.650;12.044;2024-01-15T21:41:30;-6.90;99.90
24836;DHT22;12915;57.650;12.044;2024-01-15T21:43:55;-7.00;99.90
24836;DHT22;12915;57.650;12.044;2024-01-15T21:46:24;-7.00;99.90
24836;DHT22;12915;57.650;12.044;2024-01-15T21:48:50;-7.00;99.90
24836;DHT22;12915;57.650;12.044;2024-01-15T21:51:17;-6.90;99.90
24836;DHT22;12915;57.650;12.044;2024-01-15T21:53:43;-6.90;99.90
24836;DHT22;12915;57.650;12.044;2024-01-15T21:56:09;-6.90;99.90
24836;DHT22;12915;57.650;12.044;2024-01-15T21:58:37;-6.80;99.90
24836;DHT22;12915;57.650;12.044;2024-01-15T22:01:04;-6.80;99.90
24836;DHT22;12915;57.650;12.044;2024-01-15T22:03:30;-6.90;99.90
24836;DHT22;12915;57.650;12.044;2024-01-15T22:05:56;-6.90;99.90
24836;DHT22;12915;57.650;12.044;2024-01-15T22:08:21;-6.90;99.90
24836;DHT22;12915;57.650;12.044;2024-01-15T22:10:50;-7.00;99.90
24836;DHT22;12915;57.650;12.044;2024-01-15T22:13:17;-7.30;99.90
24836;DHT22;12915;57.650;12.044;2024-01-15T22:15:43;-7.30;99.90
24836;DHT22;12915;57.650;12.044;2024-01-15T22:21:30;-7.30;99.90
24836;DHT22;12915;57.650;12.044;2024-01-15T22:23:56;-7.40;99.90
24836;DHT22;12915;57.650;12.044;2024-01-15T22:26:22;-7.50;99.90
24836;DHT22;12915;57.650;12.044;2024-01-15T22:28:48;-7.50;99.90
24836;DHT22;12915;57.650;12.044;2024-01-15T22:31:14;-7.50;99.90
24836;DHT22;12915;57.650;12.044;2024-01-15T22:33:40;-7.60;99.90
24836;DHT22;12915;57.650;12.044;2024-01-15T22:36:06;-7.70;99.90
24836;DHT22;12915;57.650;12.044;2024-01-15T22:38:32;-7.90;99.90
24836;DHT22;12915;57.650;12.044;2024-01-15T22:40:57;-7.90;99.90
24836;DHT22;12915;57.650;12.044;2024-01-15T22:43:23;-7.80;99.90
24836;DHT22;12915;57.650;12.044;2024-01-15T22:45:49;-7.70;99.90
24836;DHT22;12915;57.650;12.044;2024-01-15T22:48:15;-7.70;99.90
24836;DHT22;12915;57.650;12.044;2024-01-15T22:50:40;-7.80;99.90
24836;DHT22;12915;57.650;12.044;2024-01-15T22:53:06;-7.80;99.90
24836;DHT22;12915;57.650;12.044;2024-01-15T22:55:33;-7.70;99.90
24836;DHT22;12915;57.650;12.044;2024-01-15T22:57:58;-7.60;99.90
24836;DHT22;12915;57.650;12.044;2024-01-15T23:00:24;-7.50;99.90
24836;DHT22;12915;57.650;12.044;2024-01-15T23:02:50;-7.50;99.90
24836;DHT22;12915;57.650;12.044;2024-01-15T23:05:17;-7.30;99.90
24836;DHT22;12915;57.650;12.044;2024-01-15T23:07:43;-7.20;99.90
24836;DHT22;12915;57.650;12.044;2024-01-15T23:10:08;-7.20;99.90
24836;DHT22;12915;57.650;12.044;2024-01-15T23:12:35;-7.20;99.90
24836;DHT22;12915;57.650;12.044;2024-01-15T23:15:02;-7.20;99.90
24836;DHT22;12915;57.650;12.044;2024-01-15T23:17:29;-7.30;99.90
24836;DHT22;12915;57.650;12.044;2024-01-15T23:19:56;-7.30;99.90
24836;DHT22;12915;57.650;12.044;2024-01-15T23:22:22;-7.20;99.90
24836;DHT22;12915;57.650;12.044;2024-01-15T23:24:49;-7.20;99.90
24836;DHT22;12915;57.650;12.044;2024-01-15T23:27:15;-7.30;99.90
24836;DHT22;12915;57.650;12.044;2024-01-15T23:29:41;-7.30;99.90
24836;DHT22;12915;57.650;12.044;2024-01-15T23:32:07;-7.40;99.90
24836;DHT22;12915;57.650;12.044;2024-01-15T23:37:55;-7.50;99.90
24836;DHT22;12915;57.650;12.044;2024-01-15T23:40:24;-7.40;99.90
24836;DHT22;12915;57.650;12.044;2024-01-15T23:42:49;-7.50;99.90
24836;DHT22;12915;57.650;12.044;2024-01-15T23:45:15;-7.50;99.90
24836;DHT22;12915;57.650;12.044;2024-01-15T23:47:41;-7.40;99.90
24836;DHT22;12915;57.650;12.044;2024-01-15T23:50:07;-7.40;99.90
24836;DHT22;12915;57.650;12.044;2024-01-15T23:52:33;-7.40;99.90
24836;DHT22;12915;57.650;12.044;2024-01-15T23:54:59;-7.40;99.90
24836;DHT22;12915;57.650;12.044;2024-01-15T23:57:24;-7.50;99.90
24836;DHT22;12915;57.650;12.044;2024-01-15T23:59:50;-7.50;99.90
